Aurelius, New York
Current Conditions -  °F | °C
As of 12:54 AM on Wednesday 26 Nov 2014 (Local Time) from KSYR Reporting Station
Overcast Overcast  
Wind Chill: 32°   Ceiling: 4400
Heat Index: 37°   Visibility: 10mi
Dew Point: 25°   Wind: 7mph
Humidity: 62%   Direction: 250°WSW
Pressure: 30.21"   Gusts: NA
Location:  42.9235°N, 76.5525°W
Report Text: KSYR 260554Z 25006KT 10SM OVC044 03/M04 A3021 RMK AO2 SLP230 T00281039 10067 20028 51012
Loading
Personal Weather Stations






























Interactive Weather Map New forecast layout! Learn more

10-Day Weather Forecast

Advertisements
Track Severe Weather on mobile